createdAt,value
2022-12-01T00:01:20.724Z,99848.59
2022-12-01T00:03:53.606Z,99846.97
2022-12-01T00:06:26.485Z,99842.06
2022-12-01T00:09:19.993Z,99850.09
2022-12-01T00:11:54.645Z,99840.94
2022-12-01T00:14:27.701Z,99842.22
2022-12-01T00:17:00.745Z,99848.03
2022-12-01T00:19:33.610Z,99838.22
2022-12-01T00:22:06.572Z,99839.94
2022-12-01T00:24:39.857Z,99824.25
2022-12-01T00:27:14.067Z,99839.03
2022-12-01T00:29:47.938Z,99825.88
2022-12-01T00:32:21.095Z,99836.38
2022-12-01T00:34:53.877Z,99830.66
2022-12-01T00:37:26.831Z,99831.06
2022-12-01T00:40:00.512Z,99837.59
2022-12-01T00:42:34.805Z,99838.91
2022-12-01T00:45:08.985Z,99835.38
2022-12-01T00:47:41.807Z,99829.72
2022-12-01T00:50:15.598Z,99825.63
2022-12-01T00:52:48.466Z,99833.31
2022-12-01T00:55:21.267Z,99839.34
2022-12-01T00:57:55.645Z,99834.66
2022-12-01T01:00:29.112Z,99834.75
2022-12-01T01:03:02.491Z,99840.19
2022-12-01T01:05:36.964Z,99833.09
2022-12-01T01:08:11.703Z,99837.09
2022-12-01T01:10:46.586Z,99831.47
2022-12-01T01:13:20.903Z,99839.03
2022-12-01T01:15:59.369Z,99833.81
2022-12-01T01:18:33.143Z,99839.59
2022-12-01T01:21:08.349Z,99843.72
2022-12-01T01:23:43.755Z,99844.72
2022-12-01T01:26:20.508Z,99835.81
2022-12-01T01:28:57.191Z,99846.00
2022-12-01T01:31:32.260Z,99844.22
2022-12-01T01:34:05.101Z,99852.69
2022-12-01T01:36:37.952Z,99854.81
2022-12-01T01:39:10.779Z,99856.16
2022-12-01T01:41:43.894Z,99856.03
2022-12-01T01:44:50.876Z,99857.13
2022-12-01T01:47:27.720Z,99860.19
2022-12-01T01:50:06.259Z,99852.03
2022-12-01T01:52:44.047Z,99852.13
2022-12-01T01:55:17.369Z,99856.72
2022-12-01T01:57:50.673Z,99844.03
2022-12-01T02:00:25.207Z,99840.91
2022-12-01T02:03:00.283Z,99837.28
2022-12-01T02:05:36.255Z,99837.69
2022-12-01T02:08:12.375Z,99834.69
2022-12-01T02:11:05.916Z,99838.31
2022-12-01T02:13:48.749Z,99830.84
2022-12-01T02:16:29.337Z,99832.78
2022-12-01T02:19:23.175Z,99829.47
2022-12-01T02:22:07.130Z,99824.50
2022-12-01T02:25:10.255Z,99822.78
2022-12-01T02:28:03.059Z,99827.00
2022-12-01T02:30:42.593Z,99820.72
2022-12-01T02:33:20.386Z,99821.03
2022-12-01T02:36:01.410Z,99821.75
2022-12-01T02:38:40.036Z,99821.38
2022-12-01T02:41:20.535Z,99812.59
2022-12-01T02:43:55.687Z,99817.53
2022-12-01T02:46:35.170Z,99805.47
2022-12-01T02:49:13.848Z,99806.88
2022-12-01T02:51:47.255Z,99811.81
2022-12-01T02:54:21.907Z,99811.13
2022-12-01T02:56:54.962Z,99803.53
2022-12-01T02:59:27.889Z,99803.94
2022-12-01T03:02:12.720Z,99796.03
2022-12-01T03:05:05.847Z,99797.06
2022-12-01T03:07:54.823Z,99804.03
2022-12-01T03:10:35.648Z,99800.56
2022-12-01T03:13:19.925Z,99799.72
2022-12-01T03:15:59.421Z,99799.22
2022-12-01T03:18:40.989Z,99805.19
2022-12-01T03:21:22.263Z,99798.50
2022-12-01T03:23:59.708Z,99801.25
2022-12-01T03:26:34.893Z,99801.88
2022-12-01T03:29:14.533Z,99802.22
2022-12-01T03:31:53.112Z,99799.34
2022-12-01T03:34:33.693Z,99792.53
2022-12-01T03:37:13.249Z,99795.09
2022-12-01T03:39:48.917Z,99803.13
2022-12-01T03:42:25.524Z,99795.22
2022-12-01T03:45:05.799Z,99802.22
2022-12-01T03:47:40.502Z,99802.22
2022-12-01T03:50:15.414Z,99805.59
2022-12-01T03:52:58.714Z,99803.84
2022-12-01T03:55:35.788Z,99801.91
2022-12-01T03:58:14.152Z,99797.50
2022-12-01T04:00:53.302Z,99805.34
2022-12-01T04:03:27.857Z,99801.72
2022-12-01T04:06:04.018Z,99808.78
2022-12-01T04:08:38.252Z,99805.41
2022-12-01T04:11:29.455Z,99803.13
2022-12-01T04:14:05.905Z,99805.97
2022-12-01T04:16:39.202Z,99816.72
2022-12-01T04:19:12.324Z,99808.63
2022-12-01T04:21:46.598Z,99812.63
2022-12-01T04:24:19.918Z,99810.81
2022-12-01T04:26:52.900Z,99807.94
2022-12-01T04:29:26.128Z,99808.03
2022-12-01T04:32:00.019Z,99812.41
2022-12-01T04:34:33.034Z,99803.69
2022-12-01T04:37:08.234Z,99804.88
2022-12-01T04:39:42.293Z,99800.84
2022-12-01T04:42:15.123Z,99809.38
2022-12-01T04:44:48.240Z,99803.09
2022-12-01T04:47:21.111Z,99806.09
2022-12-01T04:49:54.595Z,99805.78
2022-12-01T04:52:34.886Z,99811.91
2022-12-01T04:55:08.795Z,99813.50
2022-12-01T04:57:42.070Z,99811.00
2022-12-01T05:00:16.063Z,99809.13
2022-12-01T05:02:48.863Z,99806.59
2022-12-01T05:05:22.171Z,99816.34
2022-12-01T05:07:56.690Z,99803.88
2022-12-01T05:10:29.602Z,99812.09
2022-12-01T05:13:02.502Z,99814.34
2022-12-01T05:15:35.746Z,99812.91
2022-12-01T05:18:08.768Z,99818.81
2022-12-01T05:20:59.132Z,99808.06
2022-12-01T05:23:34.891Z,99804.72
2022-12-01T05:26:09.659Z,99809.88
2022-12-01T05:28:42.502Z,99807.91
2022-12-01T05:31:15.589Z,99808.03
2022-12-01T05:33:48.485Z,99813.38
2022-12-01T05:36:21.373Z,99800.16
2022-12-01T05:38:55.768Z,99802.97
2022-12-01T05:41:28.677Z,99803.25
2022-12-01T05:44:01.563Z,99802.38
2022-12-01T05:46:34.422Z,99803.13
2022-12-01T05:49:07.448Z,99802.53
2022-12-01T05:51:40.423Z,99814.88
2022-12-01T05:54:16.240Z,99811.63
2022-12-01T05:56:49.073Z,99816.84
2022-12-01T05:59:21.909Z,99808.50
2022-12-01T06:01:55.020Z,99811.03
2022-12-01T06:04:27.942Z,99812.75
2022-12-01T06:07:01.365Z,99819.88
2022-12-01T06:09:35.563Z,99816.19
2022-12-01T06:12:08.650Z,99818.50
2022-12-01T06:14:41.507Z,99822.59
2022-12-01T06:17:14.319Z,99813.94
2022-12-01T06:19:48.168Z,99813.22
2022-12-01T06:22:22.331Z,99817.66
2022-12-01T06:24:56.436Z,99817.34
2022-12-01T06:27:29.304Z,99806.38
2022-12-01T06:30:02.130Z,99815.75
2022-12-01T06:32:34.998Z,99829.09
2022-12-01T06:35:09.019Z,99828.28
2022-12-01T06:37:42.006Z,99830.19
2022-12-01T06:40:16.434Z,99836.94
2022-12-01T06:42:49.230Z,99834.84
2022-12-01T06:45:22.453Z,99837.31
2022-12-01T06:47:55.484Z,99842.25
2022-12-01T06:50:28.303Z,99835.28
2022-12-01T06:53:01.156Z,99847.06
2022-12-01T06:55:35.402Z,99840.38
2022-12-01T06:58:08.558Z,99848.72
2022-12-01T07:00:41.683Z,99842.75
2022-12-01T07:03:14.571Z,99845.88
2022-12-01T07:05:56.307Z,99842.09
2022-12-01T07:08:30.973Z,99844.13
2022-12-01T07:11:07.449Z,99840.81
2022-12-01T07:13:41.573Z,99848.28
2022-12-01T07:16:14.453Z,99843.19
2022-12-01T07:18:47.480Z,99836.88
2022-12-01T07:21:20.429Z,99831.56
2022-12-01T07:23:53.285Z,99829.25
2022-12-01T07:26:27.451Z,99824.09
2022-12-01T07:29:00.250Z,99827.91
2022-12-01T07:31:33.129Z,99827.19
2022-12-01T07:34:06.929Z,99820.31
2022-12-01T07:36:39.846Z,99835.69
2022-12-01T07:39:12.838Z,99844.78
2022-12-01T07:41:47.008Z,99852.16
2022-12-01T07:44:20.869Z,99851.75
2022-12-01T07:46:53.678Z,99848.53
2022-12-01T07:49:26.550Z,99853.38
2022-12-01T07:52:00.443Z,99857.69
2022-12-01T07:54:33.236Z,99860.38
2022-12-01T07:57:07.581Z,99863.22
2022-12-01T07:59:40.388Z,99863.03
2022-12-01T08:02:13.581Z,99861.94
2022-12-01T08:04:46.553Z,99860.81
2022-12-01T08:07:19.751Z,99867.41
2022-12-01T08:09:52.634Z,99859.34
2022-12-01T08:12:27.213Z,99863.94
2022-12-01T08:15:00.040Z,99858.50
2022-12-01T08:17:32.928Z,99858.56
2022-12-01T08:20:07.179Z,99860.34
2022-12-01T08:22:40.017Z,99853.94
2022-12-01T08:25:12.845Z,99850.69
2022-12-01T08:27:47.003Z,99857.97
2022-12-01T08:30:19.994Z,99867.94
2022-12-01T08:32:54.509Z,99864.03
2022-12-01T08:35:27.324Z,99861.19
2022-12-01T08:38:00.145Z,99863.31
2022-12-01T08:40:33.057Z,99856.50
2022-12-01T08:43:07.495Z,99861.41
2022-12-01T08:45:40.295Z,99864.81
2022-12-01T08:48:13.119Z,99866.03
2022-12-01T08:50:45.944Z,99863.31
2022-12-01T08:53:18.730Z,99865.78
2022-12-01T08:55:51.560Z,99856.13
2022-12-01T08:58:26.175Z,99862.84
2022-12-01T09:01:03.307Z,99874.50
2022-12-01T09:03:36.861Z,99859.03
2022-12-01T09:06:12.600Z,99853.59
2022-12-01T09:08:45.752Z,99862.94
2022-12-01T09:11:20.943Z,99861.50
2022-12-01T09:13:55.300Z,99866.28
2022-12-01T09:16:28.328Z,99859.28
2022-12-01T09:19:01.361Z,99872.22
2022-12-01T09:21:36.977Z,99858.25
2022-12-01T09:24:12.506Z,99873.28
2022-12-01T09:26:45.585Z,99869.13
2022-12-01T09:29:19.787Z,99868.69
2022-12-01T09:31:55.791Z,99865.44
2022-12-01T09:34:29.154Z,99870.81
2022-12-01T09:37:01.980Z,99871.34
2022-12-01T09:39:34.833Z,99863.38
2022-12-01T09:42:14.235Z,99865.88
2022-12-01T09:44:52.627Z,99860.13
2022-12-01T09:47:30.028Z,99851.88
2022-12-01T09:50:07.861Z,99856.16
2022-12-01T09:52:44.778Z,99856.81
2022-12-01T09:55:20.038Z,99855.50
2022-12-01T09:57:55.065Z,99847.78
2022-12-01T10:00:32.426Z,99841.25
2022-12-01T10:03:14.045Z,99846.66
2022-12-01T10:06:25.331Z,99837.19
2022-12-01T10:08:51.532Z,99843.06
2022-12-01T10:11:32.180Z,99836.13
2022-12-01T10:14:07.407Z,99831.78
2022-12-01T10:16:50.235Z,99844.16
2022-12-01T10:19:29.989Z,99834.25
2022-12-01T10:22:21.906Z,99829.94
2022-12-01T10:24:59.653Z,99825.50
2022-12-01T10:27:44.761Z,99822.94
2022-12-01T10:30:19.501Z,99814.63
2022-12-01T10:32:56.263Z,99816.78
2022-12-01T10:35:36.174Z,99816.03
2022-12-01T10:38:28.814Z,99807.88
2022-12-01T10:41:03.638Z,99811.88
2022-12-01T10:43:40.633Z,99796.59
2022-12-01T10:46:22.381Z,99799.81
2022-12-01T10:48:58.448Z,99803.38
2022-12-01T10:51:31.285Z,99793.50
2022-12-01T10:54:11.432Z,99799.91
2022-12-01T10:56:47.985Z,99793.16
2022-12-01T10:59:27.445Z,99795.91
2022-12-01T11:02:02.454Z,99792.56
2022-12-01T11:04:45.986Z,99786.66
2022-12-01T11:07:23.084Z,99788.47
2022-12-01T11:10:09.251Z,99786.88
2022-12-01T11:12:43.498Z,99779.34
2022-12-01T11:15:23.677Z,99774.97
2022-12-01T11:18:02.081Z,99779.34
2022-12-01T11:20:38.713Z,99778.50
2022-12-01T11:23:24.789Z,99771.41
2022-12-01T11:26:01.388Z,99770.59
2022-12-01T11:28:36.027Z,99769.81
2022-12-01T11:31:11.481Z,99770.97
2022-12-01T11:33:47.957Z,99766.50
2022-12-01T11:36:27.046Z,99760.88
2022-12-01T11:39:02.597Z,99763.25
2022-12-01T11:41:40.497Z,99756.56
2022-12-01T11:47:23.158Z,99750.13
2022-12-01T11:49:58.145Z,99754.25
2022-12-01T11:52:36.370Z,99752.66
2022-12-01T11:55:22.892Z,99743.22
2022-12-01T11:57:58.676Z,99746.41
2022-12-01T12:00:41.434Z,99742.41
2022-12-01T12:03:30.076Z,99737.94
2022-12-01T12:06:39.492Z,99735.16
2022-12-01T12:09:33.909Z,99736.69
2022-12-01T12:12:17.692Z,99731.66
2022-12-01T12:15:00.682Z,99734.09
2022-12-01T12:17:51.485Z,99739.66
2022-12-01T12:20:46.569Z,99730.09
2022-12-01T12:23:33.688Z,99728.06
2022-12-01T12:26:20.077Z,99725.28
2022-12-01T12:29:18.416Z,99724.09
2022-12-01T12:32:02.716Z,99726.53
2022-12-01T12:34:48.696Z,99713.31
2022-12-01T12:37:27.493Z,99705.06
2022-12-01T12:40:22.688Z,99701.44
2022-12-01T12:43:15.256Z,99704.13
2022-12-01T12:45:59.074Z,99717.56
2022-12-01T12:51:57.748Z,99713.38
2022-12-01T12:54:34.314Z,99711.06
2022-12-01T12:57:20.620Z,99710.59
2022-12-01T12:59:58.877Z,99703.44
2022-12-01T13:02:36.469Z,99705.88
2022-12-01T13:05:17.637Z,99713.41
2022-12-01T13:07:56.260Z,99709.44
2022-12-01T13:10:36.985Z,99713.78
2022-12-01T13:13:22.003Z,99709.03
2022-12-01T13:15:57.822Z,99708.66
2022-12-01T13:18:36.611Z,99713.34
2022-12-01T13:21:17.198Z,99696.69
2022-12-01T13:23:53.333Z,99701.84
2022-12-01T13:26:26.301Z,99696.31
2022-12-01T13:28:59.781Z,99696.22
2022-12-01T13:31:43.924Z,99696.63
2022-12-01T13:34:23.389Z,99699.41
2022-12-01T13:36:58.284Z,99701.03
2022-12-01T13:39:35.677Z,99693.91
2022-12-01T13:42:10.617Z,99693.09
2022-12-01T13:44:47.146Z,99696.28
2022-12-01T13:47:52.751Z,99688.25
2022-12-01T13:50:59.258Z,99693.06
2022-12-01T13:53:34.964Z,99689.41
2022-12-01T13:56:27.667Z,99687.94
2022-12-01T13:59:00.575Z,99689.53
2022-12-01T14:01:47.200Z,99700.22
2022-12-01T14:04:30.306Z,99699.03
2022-12-01T14:07:28.927Z,99691.91
2022-12-01T14:10:36.986Z,99688.72
2022-12-01T14:13:21.468Z,99685.53
2022-12-01T14:15:57.564Z,99682.78
2022-12-01T14:18:35.952Z,99689.09
2022-12-01T14:21:14.250Z,99682.31
2022-12-01T14:24:01.700Z,99682.34
2022-12-01T14:26:45.535Z,99682.72
2022-12-01T14:29:33.361Z,99685.88
2022-12-01T14:32:24.245Z,99688.25
2022-12-01T14:35:01.752Z,99694.56
2022-12-01T14:37:40.467Z,99690.19
2022-12-01T14:40:20.222Z,99681.94
2022-12-01T14:43:14.663Z,99678.28
2022-12-01T14:45:57.117Z,99684.19
2022-12-01T14:48:38.421Z,99670.81
2022-12-01T14:51:20.436Z,99675.16
2022-12-01T14:53:56.932Z,99678.81
2022-12-01T14:56:32.486Z,99684.19
2022-12-01T14:59:16.931Z,99673.56
2022-12-01T15:01:52.633Z,99674.34
2022-12-01T15:04:26.174Z,99683.88
2022-12-01T15:06:59.060Z,99675.44
2022-12-01T15:09:34.905Z,99670.31
2022-12-01T15:12:24.539Z,99682.97
2022-12-01T15:14:57.517Z,99675.63
2022-12-01T15:17:32.083Z,99671.81
2022-12-01T15:20:06.015Z,99662.28
2022-12-01T15:22:41.983Z,99655.09
2022-12-01T15:25:16.643Z,99666.19
2022-12-01T15:28:03.221Z,99661.38
2022-12-01T15:30:36.104Z,99659.75
2022-12-01T15:33:13.020Z,99667.03
2022-12-01T15:35:47.186Z,99661.25
2022-12-01T15:38:23.747Z,99670.22
2022-12-01T15:41:28.459Z,99662.28
2022-12-01T15:43:56.072Z,99678.28
2022-12-01T15:46:30.249Z,99673.59
2022-12-01T15:49:10.974Z,99673.19
2022-12-01T15:51:44.534Z,99675.53
2022-12-01T15:54:23.209Z,99673.44
2022-12-01T15:56:59.608Z,99676.38
2022-12-01T15:59:37.215Z,99677.22
2022-12-01T16:02:28.201Z,99686.09
2022-12-01T16:05:04.261Z,99677.72
2022-12-01T16:08:11.586Z,99678.38
2022-12-01T16:10:33.345Z,99677.84
2022-12-01T16:13:38.925Z,99681.75
2022-12-01T16:16:35.192Z,99674.69
2022-12-01T16:19:29.192Z,99677.06
2022-12-01T16:22:14.119Z,99674.03
2022-12-01T16:24:50.832Z,99667.56
2022-12-01T16:27:26.062Z,99676.13
2022-12-01T16:30:02.918Z,99680.78
2022-12-01T16:32:39.074Z,99680.38
2022-12-01T16:35:24.452Z,99683.56
2022-12-01T16:37:57.703Z,99682.25
2022-12-01T16:40:30.582Z,99680.34
2022-12-01T16:43:03.530Z,99690.56
2022-12-01T16:45:37.744Z,99689.91
2022-12-01T16:48:10.631Z,99691.13
2022-12-01T16:50:43.466Z,99682.25
2022-12-01T16:53:17.170Z,99685.56
2022-12-01T16:55:54.609Z,99678.81
2022-12-01T16:58:27.784Z,99685.66
2022-12-01T17:01:04.945Z,99681.31
2022-12-01T17:03:38.169Z,99688.88
2022-12-01T17:06:17.559Z,99685.81
2022-12-01T17:08:51.408Z,99675.94
2022-12-01T17:11:24.297Z,99679.78
2022-12-01T17:13:57.130Z,99673.47
2022-12-01T17:16:31.392Z,99680.06
2022-12-01T17:19:04.929Z,99679.75
2022-12-01T17:21:37.887Z,99685.47
2022-12-01T17:24:11.376Z,99688.19
2022-12-01T17:26:44.511Z,99696.63
2022-12-01T17:29:17.377Z,99685.88
2022-12-01T17:31:51.627Z,99690.28
2022-12-01T17:34:24.557Z,99687.88
2022-12-01T17:37:00.059Z,99689.44
2022-12-01T17:39:32.916Z,99696.38
2022-12-01T17:42:06.138Z,99698.09
2022-12-01T17:44:39.317Z,99696.78
2022-12-01T17:47:13.820Z,99708.53
2022-12-01T17:49:46.945Z,99703.66
2022-12-01T17:52:22.182Z,99708.44
2022-12-01T17:54:58.249Z,99701.06
2022-12-01T17:57:31.188Z,99706.50
2022-12-01T18:00:05.938Z,99706.69
2022-12-01T18:02:42.776Z,99705.63
2022-12-01T18:05:15.756Z,99701.47
2022-12-01T18:07:48.756Z,99703.50
2022-12-01T18:10:22.619Z,99700.19
2022-12-01T18:12:55.504Z,99704.25
2022-12-01T18:15:34.362Z,99699.00
2022-12-01T18:18:08.957Z,99703.09
2022-12-01T18:20:42.723Z,99706.97
2022-12-01T18:23:15.525Z,99709.78
2022-12-01T18:25:48.302Z,99707.28
2022-12-01T18:28:21.121Z,99706.16
2022-12-01T18:30:54.095Z,99701.00
2022-12-01T18:33:28.375Z,99706.28
2022-12-01T18:36:01.773Z,99708.31
2022-12-01T18:38:34.566Z,99705.50
2022-12-01T18:41:07.758Z,99706.31
2022-12-01T18:43:40.666Z,99700.59
2022-12-01T18:46:14.291Z,99702.78
2022-12-01T18:48:50.367Z,99699.22
2022-12-01T18:51:23.194Z,99698.97
2022-12-01T18:53:57.307Z,99697.72
2022-12-01T18:56:32.180Z,99702.94
2022-12-01T18:59:07.763Z,99693.22
2022-12-01T19:01:43.951Z,99700.72
2022-12-01T19:04:18.713Z,99694.31
2022-12-01T19:06:51.594Z,99687.81
2022-12-01T19:09:24.572Z,99691.94
2022-12-01T19:11:59.932Z,99692.63
2022-12-01T19:14:32.782Z,99691.81
2022-12-01T19:17:05.795Z,99689.38
2022-12-01T19:19:40.077Z,99693.03
2022-12-01T19:22:13.129Z,99687.59
2022-12-01T19:24:50.204Z,99687.91
2022-12-01T19:27:23.863Z,99686.75
2022-12-01T19:29:56.748Z,99685.94
2022-12-01T19:32:31.732Z,99689.91
2022-12-01T19:35:07.045Z,99680.31
2022-12-01T19:37:40.126Z,99679.50
2022-12-01T19:40:14.368Z,99686.25
2022-12-01T19:42:47.676Z,99683.84
2022-12-01T19:45:21.028Z,99686.88
2022-12-01T19:47:53.953Z,99686.25
2022-12-01T19:50:28.744Z,99691.25
2022-12-01T19:53:01.709Z,99689.06
2022-12-01T19:55:36.484Z,99684.19
2022-12-01T19:58:09.267Z,99695.84
2022-12-01T20:00:42.920Z,99688.66
2022-12-01T20:03:15.889Z,99688.19
2022-12-01T20:05:50.136Z,99690.53
2022-12-01T20:08:22.921Z,99696.69
2022-12-01T20:10:56.875Z,99699.00
2022-12-01T20:13:31.891Z,99690.47
2022-12-01T20:16:06.303Z,99695.03
2022-12-01T20:18:40.278Z,99688.38
2022-12-01T20:21:17.345Z,99693.56
2022-12-01T20:23:55.310Z,99691.53
2022-12-01T20:26:31.148Z,99689.50
2022-12-01T20:29:09.304Z,99691.81
2022-12-01T20:31:43.769Z,99696.06
2022-12-01T20:34:20.394Z,99693.72
2022-12-01T20:36:55.391Z,99698.75
2022-12-01T20:39:31.442Z,99698.84
2022-12-01T20:42:04.585Z,99702.53
2022-12-01T20:44:38.062Z,99697.34
2022-12-01T20:47:11.058Z,99699.44
2022-12-01T20:49:43.915Z,99702.38
2022-12-01T20:52:18.147Z,99699.09
2022-12-01T20:54:51.020Z,99700.91
2022-12-01T20:57:24.153Z,99702.94
2022-12-01T20:59:56.983Z,99704.97
2022-12-01T21:02:29.971Z,99703.28
2022-12-01T21:05:02.933Z,99706.13
2022-12-01T21:07:37.218Z,99699.75
2022-12-01T21:10:11.866Z,99696.66
2022-12-01T21:13:08.190Z,99690.28
2022-12-01T21:15:52.259Z,99687.00
2022-12-01T21:18:29.100Z,99687.22
2022-12-01T21:21:07.931Z,99685.66
2022-12-01T21:23:42.384Z,99683.41
2022-12-01T21:26:16.157Z,99687.59
2022-12-01T21:28:48.995Z,99686.06
2022-12-01T21:31:21.841Z,99689.78
2022-12-01T21:33:54.987Z,99687.59
2022-12-01T21:36:30.725Z,99682.97
2022-12-01T21:39:14.710Z,99681.44
2022-12-01T21:41:48.927Z,99686.63
2022-12-01T21:44:23.853Z,99682.34
2022-12-01T21:46:59.011Z,99682.84
2022-12-01T21:49:38.951Z,99676.91
2022-12-01T21:52:16.081Z,99672.44
2022-12-01T21:54:51.057Z,99659.25
2022-12-01T21:57:37.339Z,99669.50
2022-12-01T22:00:29.415Z,99672.78
2022-12-01T22:03:23.097Z,99669.78
2022-12-01T22:06:29.384Z,99665.34
2022-12-01T22:08:55.414Z,99659.28
2022-12-01T22:11:31.268Z,99661.72
2022-12-01T22:14:14.291Z,99663.75
2022-12-01T22:16:52.605Z,99666.22
2022-12-01T22:19:31.394Z,99668.97
2022-12-01T22:22:21.664Z,99669.09
2022-12-01T22:24:57.910Z,99657.28
2022-12-01T22:27:36.051Z,99660.91
2022-12-01T22:30:18.054Z,99657.50
2022-12-01T22:32:57.133Z,99667.91
2022-12-01T22:35:37.440Z,99662.16
2022-12-01T22:38:36.637Z,99662.50
2022-12-01T22:41:13.086Z,99662.50
2022-12-01T22:43:49.735Z,99659.47
2022-12-01T22:46:32.198Z,99660.06
2022-12-01T22:49:19.332Z,99653.72
2022-12-01T22:51:53.725Z,99664.63
2022-12-01T22:54:33.532Z,99665.56
2022-12-01T22:57:23.745Z,99661.78
2022-12-01T22:59:58.211Z,99665.50
2022-12-01T23:02:34.980Z,99657.88
2022-12-01T23:05:21.704Z,99661.50
2022-12-01T23:07:55.054Z,99658.06
2022-12-01T23:10:31.714Z,99662.72
2022-12-01T23:13:14.566Z,99660.22
2022-12-01T23:15:50.311Z,99655.69
2022-12-01T23:18:25.685Z,99653.72
2022-12-01T23:21:00.081Z,99654.34
2022-12-01T23:23:34.834Z,99646.47
2022-12-01T23:26:09.345Z,99650.09
2022-12-01T23:28:42.399Z,99645.38
2022-12-01T23:31:16.686Z,99653.47
2022-12-01T23:33:49.696Z,99653.94
2022-12-01T23:36:25.705Z,99650.72
2022-12-01T23:39:02.531Z,99639.84
2022-12-01T23:41:38.234Z,99639.03
2022-12-01T23:44:19.608Z,99639.91
2022-12-01T23:46:56.993Z,99645.44
2022-12-01T23:49:34.301Z,99630.84
2022-12-01T23:52:11.771Z,99632.00
2022-12-01T23:54:44.668Z,99636.81
2022-12-01T23:57:21.782Z,99629.38
2022-12-01T23:59:57.341Z,99633.19
